KFAT

Fresno Yosemite International Airport

Airport
ICAO code
KFAT
IATA Code
FAT
Summary
ICAO Region
NAM
ICAO Territory
Location

Fresno, California

Serving
Fresno
Elevation
336 ft
Coordinates
36° 46' 34" N , 119° 43' 4" W
KCC
Airport LOS
Parallel Runway Operation
Metar
KFAT 251153Z 00000KT 10SM FEW200 12/08 A2994 RMK AO2 SLP135 T01220083 10161 20122 51012

Fresno Yosemite International Airport, formerly known as Fresno Air Terminal, is a joint civil-military (ANG) airport located in eastern Fresno, in Fresno County, California, USA.

Airport map

Aerial View

SKYbrary Partners:

Safety knowledge contributed by: